x

Freeport, Tx - 60 Nm South Of Freeport, Tx (42019) Wave Buoy

3:50am - Mon 22nd Sep 2014 All times are CDT. -5 hours from GMT.

  • Sig Wave height 4.3ft
  • Swell Direction
  • Peak Period 8s
  • Average Period 5s
  • Wind
    16mph, 20mph gusts
  • Sea Temp 84°f
  • Air Temp 83°f
  • Sea Pressure 1015.7mb
  • Freeport, Tx - 60 Nm South Of Freeport, Tx
  • Freeport, Tx - 60 Nm South Of Freeport, Tx

More Historic Weather Station data

Upgrade to MSW Pro to gain access to the past 30 days of data for over 8000 Wavebouys and Weather Stations around the globe.

Join Pro

Comparision Forecast

View Surf forecast
   
Mon 09/22 3:50am 4.5ft 8s 5s 16 20 mph 1015.7mb 84f 83f
2:50am 4.5ft 7s 5s 18 22 mph 1015.9mb 85f 83f
1:50am 4.5ft 7s 5s 18 20 mph 1016mb 85f 83f
12:50am 5ft 6s 5s 18 20 mph 1016mb 85f 83f
Sun 09/21 11:50pm 5.5ft 6s 5s 20 22 mph 1015.9mb 85f 84f
10:50pm 5.5ft 7s 5s 20 22 mph 1015.7mb 85f 83f
9:50pm 6ft 6s 5s 22 27 mph 1015.5mb 85f 83f
8:50pm 5.5ft 8s 5s 22 27 mph 1015mb 85f 83f
7:50pm 5.5ft 7s 5s 22 27 mph 1014.5mb 85f 83f
6:50pm 5.5ft 6s 5s 22 27 mph 1014.2mb 85f 83f
5:50pm 5ft 6s 5s 22 25 mph 1013.6mb 85f 83f
4:50pm 5ft 7s 5s 20 25 mph 1013.7mb 85f 83f
3:50pm 5.5ft 7s 5s 20 25 mph 1013.8mb 85f 83f
2:50pm 5.5ft 7s 5s 18 22 mph 1014.5mb 85f 83f
1:50pm 5ft 6s 5s 18 20 mph 1015.4mb 85f 84f
12:50pm 5.5ft 7s 5s 16 20 mph 1015.9mb 85f 84f
11:50am 5.5ft 6s 5s 18 20 mph 1016.1mb 85f 83f
10:50am 5.5ft 6s 5s 18 20 mph 1016mb 85f 84f
9:50am 5ft 6s 5s 22 27 mph 1015mb 85f 84f
8:50am 5ft 6s 5s 22 25 mph 1014.6mb 85f 84f
7:50am 5.5ft 7s 5s 20 22 mph 1014mb 85f 83f
6:50am 5ft 7s 5s 20 25 mph 1013.5mb 85f 84f
5:50am 5ft 6s 5s 20 22 mph 1012.8mb 85f 84f
4:50am 4.5ft 7s 5s 20 22 mph 1012.4mb 85f 84f
3:50am 5ft 7s 5s 18 20 mph 1012.6mb 85f 84f
2:50am 4.5ft 6s 4s 20 22 mph 1012.7mb 85f 84f
1:50am 4.5ft 6s 5s 18 22 mph 1012.6mb 85f 84f
12:50am 4.5ft 6s 5s 20 22 mph 1012.6mb 85f 84f
Sat 09/20 11:50pm 4.5ft 6s 4s 20 25 mph 1012.8mb 85f 84f
10:50pm 4.5ft 5s 4s 20 25 mph 1012.8mb 85f 84f
9:50pm 4.5ft 5s 4s 20 22 mph 1012.9mb 85f 84f
8:50pm 4ft 5s 4s 20 22 mph 1012.5mb 85f 83f
7:50pm 3.5ft 6s 4s 18 22 mph 1012mb 85f 83f
6:50pm 3.5ft 6s 4s 18 22 mph 1011.8mb 85f 83f
5:50pm 3.5ft 6s 4s 18 20 mph 1011.1mb 85f 83f
4:50pm 3.5ft 6s 4s 16 18 mph 1011.6mb 85f 83f
3:50pm 3ft 6s 5s 2 4 mph 1012.2mb 86f 81f
2:50pm 3.5ft 6s 5s 11 13 mph 1012.4mb 86f 81f
1:50pm 3ft 6s 4s 9 13 mph 1013mb 85f 82f
12:50pm 2.5ft 6s 4s 16 18 mph 1013.5mb 85f 82f
11:50am 2.5ft 5s 4s 7 9 mph 1013.8mb 85f 83f
10:50am 2ft 6s 4s 9 11 mph 1013.5mb 85f 83f
9:50am 2ft 5s 4s 9 11 mph 1013.1mb 85f 83f
8:50am 2ft 4s 4s 7 9 mph 1012.7mb 85f 83f
7:50am 2ft 4s 4s 9 11 mph 1012.5mb 85f 83f
6:50am 2ft 5s 4s 7 9 mph 1012.1mb 85f 83f
5:50am 2ft 5s 4s 9 11 mph 1011.6mb 85f 83f
4:50am 2.5ft 5s 4s 9 11 mph 1011.3mb 85f 83f
3:50am 2.5ft 4s 4s 9 11 mph 1011.6mb 85f 83f
2:50am 2.5ft 4s 4s 11 13 mph 1011.7mb 85f 82f
1:50am 2.5ft 4s 4s 13 16 mph 1011.8mb 85f 83f
12:50am 2.5ft 4s 4s 13 16 mph 1012mb 85f 83f
Fri 09/19 11:50pm 2.5ft 4s 4s 16 18 mph 1012.1mb 85f 83f
10:50pm 2.5ft 4s 4s 18 20 mph 1012.1mb 85f 83f
9:50pm 3ft 4s 4s 16 20 mph 1012.1mb 85f 82f
8:50pm 2.5ft 4s 4s 18 22 mph 1011.5mb 85f 82f
7:50pm 2.5ft 4s 4s 20 25 mph 1011.2mb 85f 82f
6:50pm 2ft 5s 4s 16 18 mph 1011.2mb 85f 82f
5:50pm 2ft 4s 4s 11 13 mph 1011.3mb 85f 81f
4:50pm 2.5ft 4s 4s 11 13 mph 1011.2mb 85f 80f
3:50pm 2.5ft 6s 4s 11 13 mph 1011.6mb 85f 80f
2:50pm 2.5ft 4s 4s 13 16 mph 1011.9mb 85f 78f
12:50pm 2ft 4s 4s 2 4 mph 1012.5mb 85f 84f
11:50am 2ft 5s 4s 4 7 mph 1012.5mb 85f 84f
10:50am 2.5ft 4s 4s 4 7 mph 1012.4mb 85f 84f
9:50am 2.5ft 5s 4s 7 9 mph 1012mb 85f 84f
8:50am 2.5ft 5s 4s 9 13 mph 1011.6mb 85f 84f
7:50am 2.5ft 4s 4s 11 13 mph 1011.1mb 85f 84f
6:50am 2.5ft 4s 4s 11 13 mph 1010.6mb 85f 84f
5:50am 2.5ft 5s 4s 13 16 mph 1010.2mb 85f 84f
4:50am 2.5ft 4s 4s 13 16 mph 1010.5mb 85f 84f
3:50am 2.5ft 4s 4s 13 16 mph 1010.8mb 85f 84f
2:50am 2.5ft 4s 4s 13 16 mph 1010.7mb 85f 84f
1:50am 2.5ft 4s 4s 13
mph
1011.2mb 85f 84f
12:50am 2.5ft 5s 4s 16 18 mph 1011.5mb 85f 84f
Thu 09/18 11:50pm 2ft 5s 4s 13 16 mph 1011.6mb 85f 84f
10:50pm 1.6ft 5s 4s 11 13 mph 1011.5mb 85f 84f
9:50pm 2ft 4s 4s 11
mph
1011.4mb 85f 84f
8:50pm 2ft 4s 4s 11 13 mph 1011.3mb 85f 82f
7:50pm 2ft 5s 4s 7 9 mph 1010.9mb 85f 84f
6:50pm 2ft 4s 4s 4 7 mph 1010.6mb 85f 84f
5:50pm 2ft 4s 4s 7
mph
1010.7mb 85f 85f
4:50pm 2ft 4s 4s 7 9 mph 1010.4mb 85f 84f
3:50pm 2ft 5s 4s 9 11 mph 1010.4mb 86f 84f
2:50pm 2ft 4s 4s 11 13 mph 1010.8mb 85f 84f
1:50pm 2.5ft 5s 4s 11 13 mph 1011.2mb 85f 84f
12:50pm 2.5ft 4s 4s 11 13 mph 1011.9mb 85f 84f
11:50am 2ft 4s 4s 13 16 mph 1012.3mb 85f 84f
10:50am 2ft 4s 4s 11 13 mph 1012.7mb 85f 84f